Time;durP1;ratioP1;P1;durP2;ratioP2;P2;SDS_P1;SDS_P2;PMS_P1;PMS_P2;Temp;Humidity;BMP_temperature;BMP_pressure;BME280_temperature;BME280_humidity;BME280_pressure;Samples;Min_cycle;Max_cycle;Signal;HPM_P1;HPM_P2
2022/01/17 00:00:49;;;;;;;22.47;9.70;;;;;;;;;;5028905;28;20432;-74
2022/01/17 00:03:14;;;;;;;20.30;9.00;;;;;;;;;;5030465;28;20025;-74
2022/01/17 00:05:40;;;;;;;23.47;10.33;;;;;;;;;;5030105;28;20033;-74
2022/01/17 00:08:05;;;;;;;21.57;10.47;;;;;;;;;;5029985;28;20033;-74
2022/01/17 00:10:31;;;;;;;21.80;10.10;;;;;;;;;;5045904;28;20163;-74
2022/01/17 00:12:57;;;;;;;20.00;9.73;;;;;;;;;;5044882;28;20517;-74
2022/01/17 00:15:42;;;;;;;19.03;9.23;;;;;;;;;;5028525;28;20418;-72
2022/01/17 00:18:53;;;;;;;22.30;9.47;;;;;;;;;;5029763;28;20026;-73
2022/01/17 00:20:53;;;;;;;22.53;10.07;;;;;;;;;;5029521;28;20095;-74
2022/01/17 00:23:19;;;;;;;19.93;9.80;;;;;;;;;;5030220;28;20076;-73
2022/01/17 00:25:44;;;;;;;19.20;9.13;;;;;;;;;;5045269;28;20059;-74
2022/01/17 00:28:10;;;;;;;23.27;11.13;;;;;;;;;;5044414;28;20044;-74
2022/01/17 00:30:35;;;;;;;23.90;10.43;;;;;;;;;;5029869;28;20028;-74
2022/01/17 00:33:01;;;;;;;15.80;9.00;;;;;;;;;;5029526;28;20489;-74
2022/01/17 00:35:26;;;;;;;21.13;9.67;;;;;;;;;;5029662;28;20378;-73
2022/01/17 00:37:52;;;;;;;20.47;10.60;;;;;;;;;;5029902;28;20032;-75
2022/01/17 00:40:19;;;;;;;20.47;9.47;;;;;;;;;;5029357;28;20120;-74
2022/01/17 00:42:45;;;;;;;19.03;9.63;;;;;;;;;;5029600;28;20051;-73
2022/01/17 00:45:15;;;;;;;17.07;8.87;;;;;;;;;;5028429;28;20021;-74
2022/01/17 00:47:41;;;;;;;20.03;8.97;;;;;;;;;;5028708;28;20112;-74
2022/01/17 00:50:08;;;;;;;26.20;10.77;;;;;;;;;;5028322;28;20083;-74
2022/01/17 00:52:33;;;;;;;19.80;9.07;;;;;;;;;;5028248;28;20052;-73
2022/01/17 00:54:59;;;;;;;20.43;9.23;;;;;;;;;;5029723;28;20109;-74
2022/01/17 00:57:24;;;;;;;19.60;9.60;;;;;;;;;;5029987;28;20425;-73
2022/01/17 00:59:50;;;;;;;21.40;10.00;;;;;;;;;;5029326;28;20065;-74
2022/01/17 01:02:16;;;;;;;21.73;9.33;;;;;;;;;;5029854;28;20029;-74
2022/01/17 01:04:41;;;;;;;22.20;8.87;;;;;;;;;;5029653;28;20030;-74
2022/01/17 01:07:07;;;;;;;20.50;9.83;;;;;;;;;;5029391;28;20029;-74
2022/01/17 01:09:39;;;;;;;15.03;7.73;;;;;;;;;;5029355;28;20036;-74
2022/01/17 01:12:05;;;;;;;23.10;10.77;;;;;;;;;;5028301;28;20025;-75
2022/01/17 01:14:30;;;;;;;20.00;10.40;;;;;;;;;;5029261;28;20069;-74
2022/01/17 01:16:57;;;;;;;20.17;9.33;;;;;;;;;;5027719;28;20029;-74
2022/01/17 01:29:46;;;;;;;22.13;9.83;;;;;;;;;;5029162;28;20103;-74
2022/01/17 01:32:14;;;;;;;18.97;9.30;;;;;;;;;;5029353;28;20029;-74
2022/01/17 01:34:44;;;;;;;20.33;8.67;;;;;;;;;;5029351;28;20052;-74
2022/01/17 01:37:11;;;;;;;17.07;9.33;;;;;;;;;;5029025;28;20036;-74
2022/01/17 01:39:37;;;;;;;19.17;10.87;;;;;;;;;;5029031;28;20022;-74
2022/01/17 01:42:04;;;;;;;20.93;9.60;;;;;;;;;;5028106;28;20493;-75
2022/01/17 01:44:30;;;;;;;22.53;10.53;;;;;;;;;;5032389;28;20489;-74
2022/01/17 01:46:57;;;;;;;25.70;10.93;;;;;;;;;;5031339;28;20033;-74
2022/01/17 01:49:24;;;;;;;22.63;10.53;;;;;;;;;;5031500;28;20500;-71
2022/01/17 01:51:50;;;;;;;19.40;9.37;;;;;;;;;;5031466;28;20021;-74
2022/01/17 01:54:16;;;;;;;22.07;9.77;;;;;;;;;;5032548;28;20474;-74
2022/01/17 01:56:45;;;;;;;19.57;9.23;;;;;;;;;;5032472;28;20033;-75
2022/01/17 01:59:12;;;;;;;17.27;9.30;;;;;;;;;;5032337;28;20029;-74
2022/01/17 02:01:38;;;;;;;23.67;9.30;;;;;;;;;;5033514;28;20060;-74
2022/01/17 02:04:04;;;;;;;19.77;9.37;;;;;;;;;;5033197;28;20049;-73
2022/01/17 02:06:32;;;;;;;19.37;9.33;;;;;;;;;;5032675;28;20029;-74
2022/01/17 02:08:58;;;;;;;18.33;9.00;;;;;;;;;;5033088;28;20104;-73
2022/01/17 02:11:24;;;;;;;20.00;10.10;;;;;;;;;;5033585;28;20079;-73
2022/01/17 02:13:50;;;;;;;18.50;8.83;;;;;;;;;;5030196;28;20036;-74
2022/01/17 02:16:16;;;;;;;16.70;8.73;;;;;;;;;;5031078;28;20017;-73
2022/01/17 02:18:45;;;;;;;14.20;8.37;;;;;;;;;;5031904;28;20097;-73
2022/01/17 02:23:41;;;;;;;20.50;9.43;;;;;;;;;;5032052;28;20040;-73
2022/01/17 02:26:08;;;;;;;14.40;7.07;;;;;;;;;;5031649;28;20060;-74
2022/01/17 02:28:35;;;;;;;21.13;8.90;;;;;;;;;;5032231;28;20063;-73
2022/01/17 02:31:05;;;;;;;22.13;9.87;;;;;;;;;;5031719;28;20037;-74
2022/01/17 02:33:34;;;;;;;21.63;9.57;;;;;;;;;;5032757;28;20104;-73
2022/01/17 02:36:01;;;;;;;15.47;8.33;;;;;;;;;;5031814;28;20117;-73
2022/01/17 02:38:27;;;;;;;19.13;9.00;;;;;;;;;;5030456;28;20503;-74
2022/01/17 02:40:54;;;;;;;23.63;10.53;;;;;;;;;;5031841;28;20029;-73
2022/01/17 02:43:21;;;;;;;20.00;9.27;;;;;;;;;;5031277;28;20046;-74
2022/01/17 02:48:24;;;;;;;18.55;9.27;;;;;;;;;;5032298;28;20086;-74
2022/01/17 02:50:50;;;;;;;15.35;8.40;;;;;;;;;;5031491;28;20105;-73
2022/01/17 02:53:16;;;;;;;17.37;8.53;;;;;;;;;;5031004;28;20096;-74
2022/01/17 02:55:49;;;;;;;14.13;7.60;;;;;;;;;;5029697;28;20124;-73
2022/01/17 02:58:19;;;;;;;15.23;8.17;;;;;;;;;;5031035;28;20048;-74
2022/01/17 03:00:45;;;;;;;15.50;7.83;;;;;;;;;;5031421;28;20022;-74
2022/01/17 03:03:14;;;;;;;14.43;7.30;;;;;;;;;;5030115;28;20028;-74
2022/01/17 03:05:40;;;;;;;16.70;7.90;;;;;;;;;;5029884;28;20025;-74
2022/01/17 03:08:06;;;;;;;14.10;8.10;;;;;;;;;;5029705;28;20391;-74
2022/01/17 03:10:43;;;;;;;17.87;7.90;;;;;;;;;;5031232;28;20014;-74
2022/01/17 03:13:14;;;;;;;15.00;7.10;;;;;;;;;;5030060;28;20080;-73
2022/01/17 03:15:41;;;;;;;13.00;7.03;;;;;;;;;;5029537;28;20032;-73
2022/01/17 03:18:07;;;;;;;13.83;6.93;;;;;;;;;;5029313;28;20033;-73
2022/01/17 03:20:34;;;;;;;15.93;8.93;;;;;;;;;;5030992;28;20040;-74
2022/01/17 03:23:01;;;;;;;13.67;7.37;;;;;;;;;;5030832;28;20529;-73
2022/01/17 03:25:27;;;;;;;13.07;6.97;;;;;;;;;;5030589;28;20029;-74
2022/01/17 03:27:53;;;;;;;13.90;7.70;;;;;;;;;;5028778;28;20021;-74
2022/01/17 03:30:19;;;;;;;13.13;7.33;;;;;;;;;;5030775;28;20583;-74
2022/01/17 03:32:45;;;;;;;13.07;7.07;;;;;;;;;;5030636;28;20029;-74
2022/01/17 03:35:11;;;;;;;15.97;8.20;;;;;;;;;;5029885;28;20029;-74
2022/01/17 03:37:37;;;;;;;15.10;7.30;;;;;;;;;;5030953;28;20029;-74
2022/01/17 03:40:03;;;;;;;12.87;6.83;;;;;;;;;;5029583;28;20026;-74
2022/01/17 03:42:29;;;;;;;14.90;7.27;;;;;;;;;;5030135;28;20497;-75
2022/01/17 03:44:55;;;;;;;14.73;7.77;;;;;;;;;;5030296;28;20040;-74
2022/01/17 03:47:20;;;;;;;13.57;6.73;;;;;;;;;;5030228;28;20075;-74
2022/01/17 03:49:46;;;;;;;16.90;7.27;;;;;;;;;;5029107;28;20043;-74
2022/01/17 03:52:12;;;;;;;15.07;7.80;;;;;;;;;;5028877;28;20025;-73
2022/01/17 03:54:37;;;;;;;13.63;7.30;;;;;;;;;;5030254;28;20061;-73
2022/01/17 03:57:03;;;;;;;15.33;8.03;;;;;;;;;;5028817;28;20403;-73
2022/01/17 03:59:28;;;;;;;12.20;6.90;;;;;;;;;;5029822;28;20033;-74
2022/01/17 04:01:54;;;;;;;15.13;7.80;;;;;;;;;;5028421;28;20458;-74
2022/01/17 04:04:20;;;;;;;13.47;7.33;;;;;;;;;;5030367;28;20028;-74
2022/01/17 04:06:45;;;;;;;14.80;6.53;;;;;;;;;;5029518;28;20029;-73
2022/01/17 04:09:11;;;;;;;12.80;7.47;;;;;;;;;;5029851;28;20029;-75
2022/01/17 04:11:38;;;;;;;10.93;5.37;;;;;;;;;;5029727;28;20057;-74
2022/01/17 04:14:09;;;;;;;15.97;7.50;;;;;;;;;;5030102;28;20029;-73
2022/01/17 04:16:35;;;;;;;12.38;7.40;;;;;;;;;;5028658;28;20021;-73
2022/01/17 04:19:01;;;;;;;11.70;6.13;;;;;;;;;;5062141;28;20052;-73
2022/01/17 04:21:32;;;;;;;13.50;7.33;;;;;;;;;;5028323;28;20036;-73
2022/01/17 04:23:58;;;;;;;10.30;6.90;;;;;;;;;;5029936;28;20035;-74
2022/01/17 04:26:23;;;;;;;14.17;6.97;;;;;;;;;;5061377;28;20431;-74
2022/01/17 04:28:49;;;;;;;14.17;7.70;;;;;;;;;;5028282;28;20033;-73
2022/01/17 04:31:14;;;;;;;12.43;7.00;;;;;;;;;;5029613;28;20026;-74
2022/01/17 04:33:40;;;;;;;11.70;6.53;;;;;;;;;;5029594;28;20527;-73
2022/01/17 04:36:07;;;;;;;12.60;6.67;;;;;;;;;;5029499;28;20035;-74
2022/01/17 04:38:33;;;;;;;10.97;6.23;;;;;;;;;;5029926;28;20030;-74
2022/01/17 04:41:04;;;;;;;14.20;7.53;;;;;;;;;;5028202;28;20036;-73
2022/01/17 04:45:59;;;;;;;12.67;6.60;;;;;;;;;;5029653;28;20036;-73
2022/01/17 04:48:26;;;;;;;8.93;5.40;;;;;;;;;;5029607;28;20029;-73
2022/01/17 04:50:52;;;;;;;13.13;6.53;;;;;;;;;;5029685;28;20500;-73
2022/01/17 04:53:20;;;;;;;12.57;6.73;;;;;;;;;;5029353;28;20037;-74
2022/01/17 04:55:46;;;;;;;11.73;6.10;;;;;;;;;;5027994;28;20052;-76
2022/01/17 04:58:12;;;;;;;14.07;6.43;;;;;;;;;;5028003;28;20543;-74
2022/01/17 05:00:46;;;;;;;12.67;6.40;;;;;;;;;;5028276;28;20084;-73
2022/01/17 05:03:25;;;;;;;13.13;6.20;;;;;;;;;;5029228;28;20030;-74
2022/01/17 05:05:51;;;;;;;11.47;6.77;;;;;;;;;;5028423;28;20029;-73
2022/01/17 05:08:17;;;;;;;13.13;6.17;;;;;;;;;;5029518;28;20537;-74
2022/01/17 05:10:49;;;;;;;11.70;6.47;;;;;;;;;;5028159;28;20036;-74
2022/01/17 05:13:19;;;;;;;11.00;6.82;;;;;;;;;;5027841;28;20029;-75
2022/01/17 05:15:53;;;;;;;10.40;5.93;;;;;;;;;;5029503;28;20057;-74
2022/01/17 05:20:49;;;;;;;15.50;6.90;;;;;;;;;;5032894;28;20679;-73
2022/01/17 05:23:16;;;;;;;11.40;6.40;;;;;;;;;;5047927;28;20116;-73
2022/01/17 05:25:41;;;;;;;9.87;6.63;;;;;;;;;;5032758;28;20462;-74
2022/01/17 05:28:07;;;;;;;12.33;6.97;;;;;;;;;;5031659;28;20040;-73
2022/01/17 05:30:32;;;;;;;11.57;7.10;;;;;;;;;;5031553;28;20021;-74
2022/01/17 05:33:00;;;;;;;13.33;7.23;;;;;;;;;;5031587;28;20025;-75
2022/01/17 05:35:26;;;;;;;12.40;6.17;;;;;;;;;;5031554;28;20087;-74
2022/01/17 05:37:53;;;;;;;10.80;6.50;;;;;;;;;;5031487;28;20029;-74
2022/01/17 05:40:18;;;;;;;11.57;6.03;;;;;;;;;;5030953;28;20056;-74
2022/01/17 05:42:46;;;;;;;10.87;6.33;;;;;;;;;;5031927;28;20490;-74
2022/01/17 05:45:13;;;;;;;12.30;6.30;;;;;;;;;;5032382;28;20033;-74
2022/01/17 05:47:38;;;;;;;13.33;6.37;;;;;;;;;;5032016;28;20051;-74
2022/01/17 05:50:06;;;;;;;11.57;6.40;;;;;;;;;;5032429;28;20021;-75
2022/01/17 05:52:32;;;;;;;13.30;6.63;;;;;;;;;;5032774;28;20073;-73
2022/01/17 05:54:58;;;;;;;11.03;6.70;;;;;;;;;;5031044;28;20107;-74
2022/01/17 05:57:25;;;;;;;11.67;6.47;;;;;;;;;;5030841;28;20026;-74
2022/01/17 05:59:51;;;;;;;12.23;5.80;;;;;;;;;;5047310;28;20455;-74
2022/01/17 06:02:16;;;;;;;11.07;6.17;;;;;;;;;;5031768;28;20421;-75
2022/01/17 06:04:42;;;;;;;12.57;6.67;;;;;;;;;;5031684;28;20021;-74
2022/01/17 06:07:07;;;;;;;12.70;5.40;;;;;;;;;;5031820;28;20041;-74
2022/01/17 06:09:33;;;;;;;11.20;6.37;;;;;;;;;;5030472;28;20056;-73
2022/01/17 06:11:59;;;;;;;10.60;5.63;;;;;;;;;;5030683;28;20453;-73
2022/01/17 06:14:25;;;;;;;9.93;6.00;;;;;;;;;;5030061;28;20095;-75
2022/01/17 06:16:51;;;;;;;8.77;5.70;;;;;;;;;;5030957;28;20031;-73
2022/01/17 06:19:17;;;;;;;10.17;5.67;;;;;;;;;;5049220;28;20022;-73
2022/01/17 06:21:43;;;;;;;6.77;4.40;;;;;;;;;;5064527;28;20033;-74
2022/01/17 06:24:10;;;;;;;10.87;5.63;;;;;;;;;;5027809;28;20040;-73
2022/01/17 06:26:41;;;;;;;13.10;5.23;;;;;;;;;;5038644;28;20111;-75
2022/01/17 06:29:09;;;;;;;12.43;5.20;;;;;;;;;;5030919;28;20082;-75
2022/01/17 06:31:35;;;;;;;9.57;5.77;;;;;;;;;;5031819;28;20117;-74
2022/01/17 06:34:02;;;;;;;8.30;4.33;;;;;;;;;;5032938;28;20401;-74
2022/01/17 06:36:28;;;;;;;6.93;4.67;;;;;;;;;;5032175;28;20029;-75
2022/01/17 06:38:57;;;;;;;7.33;4.37;;;;;;;;;;5031647;28;20029;-74
2022/01/17 06:41:23;;;;;;;7.10;4.30;;;;;;;;;;5029654;28;20032;-73
2022/01/17 06:43:49;;;;;;;7.13;3.83;;;;;;;;;;5029242;28;20041;-74
2022/01/17 06:46:15;;;;;;;10.47;5.70;;;;;;;;;;5026168;28;20049;-74
2022/01/17 06:48:42;;;;;;;9.03;4.33;;;;;;;;;;5029171;28;20022;-75
2022/01/17 06:51:07;;;;;;;8.90;4.33;;;;;;;;;;5029985;28;20351;-74
2022/01/17 06:53:33;;;;;;;6.80;4.33;;;;;;;;;;5030127;28;20235;-75
2022/01/17 06:55:59;;;;;;;6.00;3.80;;;;;;;;;;5030027;28;20022;-74
2022/01/17 06:58:27;;;;;;;4.53;3.13;;;;;;;;;;5026058;28;20390;-74
2022/01/17 07:00:52;;;;;;;10.07;5.00;;;;;;;;;;5009600;28;20099;-74
2022/01/17 07:03:19;;;;;;;6.00;3.60;;;;;;;;;;5010815;28;20076;-73
2022/01/17 07:05:44;;;;;;;6.47;3.27;;;;;;;;;;5011437;28;20102;-75
2022/01/17 07:08:10;;;;;;;4.60;3.00;;;;;;;;;;5029412;28;20566;-74
2022/01/17 07:10:36;;;;;;;4.27;3.10;;;;;;;;;;5028331;28;20017;-74
2022/01/17 07:13:02;;;;;;;4.77;3.10;;;;;;;;;;5028444;28;20067;-73
2022/01/17 07:15:27;;;;;;;4.03;3.30;;;;;;;;;;5043743;28;20029;-75
2022/01/17 07:17:53;;;;;;;3.63;2.53;;;;;;;;;;5029516;28;20473;-73
2022/01/17 07:20:18;;;;;;;4.00;3.00;;;;;;;;;;5029950;28;20025;-73
2022/01/17 07:22:44;;;;;;;4.53;2.93;;;;;;;;;;5027978;28;20472;-75
2022/01/17 07:25:10;;;;;;;3.93;2.47;;;;;;;;;;5025001;28;20032;-74
2022/01/17 07:27:36;;;;;;;3.63;2.87;;;;;;;;;;5017006;28;20049;-76
2022/01/17 07:30:05;;;;;;;4.87;2.70;;;;;;;;;;5026380;28;20079;-73
2022/01/17 07:32:31;;;;;;;4.70;3.10;;;;;;;;;;5028258;28;20029;-73
2022/01/17 07:34:57;;;;;;;3.80;2.30;;;;;;;;;;5029335;28;20029;-73
2022/01/17 07:37:22;;;;;;;5.53;3.00;;;;;;;;;;5029696;28;20029;-74
2022/01/17 07:39:48;;;;;;;7.37;2.60;;;;;;;;;;5029247;28;20021;-74
2022/01/17 07:42:13;;;;;;;4.60;2.70;;;;;;;;;;5027588;28;20061;-74
2022/01/17 07:44:42;;;;;;;4.00;2.30;;;;;;;;;;5026956;28;20129;-73
2022/01/17 07:47:15;;;;;;;5.47;2.67;;;;;;;;;;5029297;28;20029;-73
2022/01/17 07:49:42;;;;;;;2.37;2.10;;;;;;;;;;5027923;28;20033;-74
2022/01/17 07:52:08;;;;;;;5.10;2.60;;;;;;;;;;5029132;28;20048;-74
2022/01/17 07:54:37;;;;;;;3.63;2.37;;;;;;;;;;5026278;28;20064;-74
2022/01/17 07:57:04;;;;;;;4.67;2.50;;;;;;;;;;5024845;28;20021;-73
2022/01/17 07:59:30;;;;;;;4.47;2.50;;;;;;;;;;5043760;28;20427;-74
2022/01/17 08:01:56;;;;;;;6.20;3.60;;;;;;;;;;5021142;28;20038;-74
2022/01/17 08:04:22;;;;;;;9.03;2.90;;;;;;;;;;5021698;28;20163;-73
2022/01/17 08:06:49;;;;;;;5.07;2.50;;;;;;;;;;5022395;28;20153;-74
2022/01/17 08:09:17;;;;;;;3.60;2.57;;;;;;;;;;5021548;28;20035;-73
2022/01/17 08:11:43;;;;;;;3.67;2.30;;;;;;;;;;5022874;28;20107;-73
2022/01/17 08:14:08;;;;;;;4.77;2.70;;;;;;;;;;5022709;28;20136;-73
2022/01/17 08:16:34;;;;;;;4.90;2.30;;;;;;;;;;5037134;28;20406;-75
2022/01/17 08:19:00;;;;;;;6.53;2.80;;;;;;;;;;5020823;28;20028;-75
2022/01/17 08:21:25;;;;;;;5.90;2.60;;;;;;;;;;5016895;28;20029;-74
2022/01/17 08:23:54;;;;;;;5.97;2.20;;;;;;;;;;5014800;28;20040;-73
2022/01/17 08:26:21;;;;;;;4.27;2.30;;;;;;;;;;5019124;28;20107;-74
2022/01/17 08:28:47;;;;;;;4.80;2.60;;;;;;;;;;5024737;28;20413;-76
2022/01/17 08:31:13;;;;;;;4.03;2.23;;;;;;;;;;5022456;28;20033;-74
2022/01/17 08:33:39;;;;;;;5.13;2.70;;;;;;;;;;5023359;28;20368;-74
2022/01/17 08:36:07;;;;;;;4.33;2.83;;;;;;;;;;5020592;28;20440;-73
2022/01/17 08:38:32;;;;;;;7.47;2.63;;;;;;;;;;5022814;28;20052;-74
2022/01/17 08:40:58;;;;;;;3.73;2.13;;;;;;;;;;5022200;28;20034;-74
2022/01/17 08:43:24;;;;;;;6.53;2.60;;;;;;;;;;5047490;28;20053;-74
2022/01/17 08:45:50;;;;;;;6.27;3.20;;;;;;;;;;5019897;28;20164;-75
2022/01/17 08:48:16;;;;;;;3.07;2.43;;;;;;;;;;5019124;28;20034;-75
2022/01/17 08:50:43;;;;;;;5.50;2.60;;;;;;;;;;5037498;28;20079;-74
2022/01/17 08:53:13;;;;;;;7.13;2.90;;;;;;;;;;5025565;28;20041;-74
2022/01/17 08:55:40;;;;;;;4.73;2.60;;;;;;;;;;5022980;28;20120;-73
2022/01/17 08:58:06;;;;;;;5.53;3.13;;;;;;;;;;5021576;28;20021;-74
2022/01/17 09:00:33;;;;;;;4.03;2.30;;;;;;;;;;5024891;28;20033;-75
2022/01/17 09:03:01;;;;;;;7.90;3.43;;;;;;;;;;5026828;28;20072;-72
2022/01/17 09:05:27;;;;;;;4.30;2.43;;;;;;;;;;5024257;28;20033;-74
2022/01/17 09:07:53;;;;;;;12.03;3.47;;;;;;;;;;5024207;28;20033;-74
2022/01/17 09:10:18;;;;;;;1.97;1.67;;;;;;;;;;5023849;28;20030;-74
2022/01/17 09:12:44;;;;;;;3.23;2.63;;;;;;;;;;5023017;28;20021;-73
2022/01/17 09:15:10;;;;;;;8.13;3.07;;;;;;;;;;5023002;28;20033;-73
2022/01/17 09:17:37;;;;;;;2.97;2.43;;;;;;;;;;5021536;28;20061;-76
2022/01/17 09:20:04;;;;;;;5.73;2.33;;;;;;;;;;5024905;28;20033;-74
2022/01/17 09:22:29;;;;;;;7.57;2.77;;;;;;;;;;5024678;28;20031;-74
2022/01/17 09:24:56;;;;;;;11.40;4.10;;;;;;;;;;5037144;28;20034;-75
2022/01/17 09:27:21;;;;;;;6.37;2.40;;;;;;;;;;5024334;28;20438;-75
2022/01/17 09:29:47;;;;;;;7.93;3.87;;;;;;;;;;5025699;28;20056;-73
2022/01/17 09:32:14;;;;;;;9.27;3.27;;;;;;;;;;5025672;28;20686;-74
2022/01/17 09:34:42;;;;;;;6.37;3.27;;;;;;;;;;5020560;28;20592;-74
2022/01/17 09:37:09;;;;;;;9.87;3.47;;;;;;;;;;5023338;28;20034;-75
2022/01/17 09:39:37;;;;;;;7.37;3.20;;;;;;;;;;5024714;28;20029;-73
2022/01/17 09:42:05;;;;;;;7.47;3.23;;;;;;;;;;5020798;28;20441;-75
2022/01/17 09:44:32;;;;;;;10.37;3.80;;;;;;;;;;5018443;28;20108;-73
2022/01/17 09:46:58;;;;;;;14.43;3.63;;;;;;;;;;5020206;28;21107;-74
2022/01/17 09:49:33;;;;;;;5.47;3.03;;;;;;;;;;5025188;28;20574;-77
2022/01/17 09:52:08;;;;;;;10.87;3.17;;;;;;;;;;5023571;28;20029;-74
2022/01/17 09:54:36;;;;;;;6.63;3.30;;;;;;;;;;5024977;28;20749;-74
2022/01/17 09:57:06;;;;;;;4.00;2.80;;;;;;;;;;5014199;28;20550;-73
2022/01/17 09:59:35;;;;;;;8.03;4.00;;;;;;;;;;5021708;28;20026;-73
2022/01/17 10:02:00;;;;;;;6.03;3.50;;;;;;;;;;5039448;28;20103;-74
2022/01/17 10:04:26;;;;;;;5.20;3.20;;;;;;;;;;5021443;28;20041;-73
2022/01/17 10:06:54;;;;;;;8.37;2.83;;;;;;;;;;5020636;28;20049;-74
2022/01/17 10:09:21;;;;;;;9.70;3.57;;;;;;;;;;5022189;28;20034;-73
2022/01/17 10:12:05;;;;;;;6.37;3.27;;;;;;;;;;5023348;28;20021;-74
2022/01/17 10:14:40;;;;;;;7.20;3.20;;;;;;;;;;5023245;28;20105;-73
2022/01/17 10:17:17;;;;;;;10.70;2.70;;;;;;;;;;5019843;28;20033;-74
2022/01/17 10:19:44;;;;;;;7.47;3.03;;;;;;;;;;5018545;28;20044;-72
2022/01/17 10:22:17;;;;;;;7.67;4.00;;;;;;;;;;5024187;28;20531;-74
2022/01/17 10:25:16;;;;;;;14.87;3.60;;;;;;;;;;5021581;28;20036;-74
2022/01/17 10:35:57;;;;;;;7.50;2.93;;;;;;;;;;5020239;28;20143;-74
2022/01/17 10:38:25;;;;;;;4.53;2.97;;;;;;;;;;5023040;28;20269;-74
2022/01/17 10:40:56;;;;;;;4.23;3.03;;;;;;;;;;5022219;28;20099;-74
2022/01/17 10:43:26;;;;;;;6.53;3.00;;;;;;;;;;5020616;28;20143;-75
2022/01/17 10:45:54;;;;;;;4.43;2.10;;;;;;;;;;5014971;28;20033;-74
2022/01/17 10:48:20;;;;;;;4.93;2.37;;;;;;;;;;5022532;28;20290;-75
2022/01/17 10:50:50;;;;;;;5.97;2.53;;;;;;;;;;5022063;28;20024;-75
2022/01/17 10:53:17;;;;;;;4.53;2.73;;;;;;;;;;5024759;28;20116;-74
2022/01/17 10:55:50;;;;;;;3.90;2.27;;;;;;;;;;5023610;28;20083;-75
2022/01/17 10:58:21;;;;;;;5.03;2.60;;;;;;;;;;5024849;28;20397;-75
2022/01/17 11:00:49;;;;;;;2.95;2.00;;;;;;;;;;5024151;28;20037;-75
2022/01/17 11:03:18;;;;;;;5.57;2.17;;;;;;;;;;5021573;28;20041;-74
2022/01/17 11:05:46;;;;;;;6.63;3.23;;;;;;;;;;5019492;28;20489;-74
2022/01/17 11:08:13;;;;;;;7.03;2.57;;;;;;;;;;5022289;28;20457;-73
2022/01/17 11:10:44;;;;;;;4.53;2.27;;;;;;;;;;5002855;28;20058;-76
2022/01/17 11:13:17;;;;;;;3.53;2.10;;;;;;;;;;5034353;28;20037;-75
2022/01/17 11:15:46;;;;;;;4.50;2.60;;;;;;;;;;5019344;28;20032;-74
2022/01/17 11:18:20;;;;;;;7.33;3.37;;;;;;;;;;5021984;28;20272;-75
2022/01/17 11:20:48;;;;;;;5.37;2.30;;;;;;;;;;5021205;28;20043;-74
2022/01/17 11:23:14;;;;;;;3.27;2.20;;;;;;;;;;5016410;28;20029;-73
2022/01/17 11:25:43;;;;;;;7.13;1.97;;;;;;;;;;5018913;28;20032;-74
2022/01/17 11:28:09;;;;;;;2.40;2.00;;;;;;;;;;5037475;28;20041;-74
2022/01/17 11:30:37;;;;;;;4.73;1.80;;;;;;;;;;5027910;28;20032;-74
2022/01/17 11:33:07;;;;;;;4.73;2.57;;;;;;;;;;5030069;28;20033;-73
2022/01/17 11:35:45;;;;;;;3.83;1.73;;;;;;;;;;5104603;27;20452;-74
2022/01/17 11:38:15;;;;;;;3.83;2.20;;;;;;;;;;5100963;28;20031;-73
2022/01/17 11:40:43;;;;;;;10.87;4.73;;;;;;;;;;5092806;28;20455;-74
2022/01/17 11:43:37;;;;;;;5.90;1.80;;;;;;;;;;5101427;28;20038;-74
2022/01/17 11:46:20;;;;;;;2.73;1.90;;;;;;;;;;5091720;28;20486;-74
2022/01/17 11:49:03;;;;;;;7.67;2.27;;;;;;;;;;5095021;28;20020;-74
2022/01/17 11:51:40;;;;;;;5.47;1.97;;;;;;;;;;5100717;28;20032;-75
2022/01/17 11:54:17;;;;;;;3.30;1.63;;;;;;;;;;5096547;27;20376;-74
2022/01/17 11:56:52;;;;;;;4.87;2.10;;;;;;;;;;5091320;28;20039;-74
2022/01/17 11:59:51;;;;;;;2.30;1.90;;;;;;;;;;5095453;28;20035;-76
2022/01/17 12:02:31;;;;;;;4.53;1.90;;;;;;;;;;5083782;28;20035;-74
2022/01/17 12:05:02;;;;;;;4.90;2.00;;;;;;;;;;5100164;28;20119;-75
2022/01/17 12:07:52;;;;;;;3.45;1.85;;;;;;;;;;5108432;27;20055;-73
2022/01/17 12:10:21;;;;;;;1.77;1.63;;;;;;;;;;5095838;28;20210;-73
2022/01/17 12:13:34;;;;;;;4.83;1.90;;;;;;;;;;5096335;28;20035;-75
2022/01/17 12:16:27;;;;;;;4.10;1.80;;;;;;;;;;5031283;28;20132;-73
2022/01/17 12:19:03;;;;;;;4.88;2.03;;;;;;;;;;5076851;28;20028;-75
2022/01/17 12:22:05;;;;;;;2.50;1.20;;;;;;;;;;5077712;28;20032;-75
2022/01/17 12:24:40;;;;;;;2.63;1.67;;;;;;;;;;5076630;28;20991;-75
2022/01/17 12:27:10;;;;;;;5.17;2.10;;;;;;;;;;5073866;28;20036;-76
2022/01/17 12:29:52;;;;;;;3.60;1.57;;;;;;;;;;5078361;28;20598;-76
2022/01/17 12:32:24;;;;;;;5.63;2.83;;;;;;;;;;5075617;28;20503;-76
2022/01/17 12:34:51;;;;;;;2.28;1.40;;;;;;;;;;5073799;28;20047;-76
2022/01/17 12:37:40;;;;;;;4.77;2.40;;;;;;;;;;5073920;28;20045;-76
2022/01/17 12:40:08;;;;;;;2.93;1.90;;;;;;;;;;5080416;28;20040;-74
2022/01/17 12:43:01;;;;;;;3.57;1.80;;;;;;;;;;5079196;28;20046;-74
2022/01/17 12:45:31;;;;;;;4.10;1.87;;;;;;;;;;5085961;28;20162;-75
2022/01/17 12:47:59;;;;;;;4.20;2.40;;;;;;;;;;5058451;28;20033;-76
2022/01/17 12:50:27;;;;;;;2.77;2.23;;;;;;;;;;5067265;28;20104;-76
2022/01/17 12:52:57;;;;;;;3.47;1.80;;;;;;;;;;5063721;28;20075;-75
2022/01/17 12:55:25;;;;;;;3.43;2.03;;;;;;;;;;5060842;28;20605;-74
2022/01/17 12:57:51;;;;;;;3.30;1.90;;;;;;;;;;5058468;28;20028;-75
2022/01/17 13:00:23;;;;;;;3.10;2.23;;;;;;;;;;5063407;28;20408;-74
2022/01/17 13:02:53;;;;;;;3.77;2.20;;;;;;;;;;5064021;28;20341;-76
2022/01/17 13:05:27;;;;;;;3.93;1.63;;;;;;;;;;5078643;28;20095;-74
2022/01/17 13:07:54;;;;;;;5.20;2.00;;;;;;;;;;5070123;28;20032;-75
2022/01/17 13:10:20;;;;;;;3.87;2.20;;;;;;;;;;5061945;28;20442;-75
2022/01/17 13:12:49;;;;;;;5.20;1.93;;;;;;;;;;5065117;28;20044;-73
2022/01/17 13:15:15;;;;;;;3.10;2.13;;;;;;;;;;5061671;28;20041;-75
2022/01/17 13:17:40;;;;;;;4.57;1.50;;;;;;;;;;5060941;28;20040;-75
2022/01/17 13:20:08;;;;;;;10.30;2.10;;;;;;;;;;5063565;28;20125;-74
2022/01/17 13:22:41;;;;;;;4.03;1.60;;;;;;;;;;5078527;28;21650;-75
2022/01/17 13:25:08;;;;;;;3.47;1.50;;;;;;;;;;5059902;28;20078;-75
2022/01/17 13:27:37;;;;;;;2.47;1.63;;;;;;;;;;5062399;28;20044;-76
2022/01/17 13:30:11;;;;;;;3.73;1.50;;;;;;;;;;5063477;28;20039;-75
2022/01/17 13:32:38;;;;;;;2.33;1.53;;;;;;;;;;5043971;28;20054;-75
2022/01/17 13:35:13;;;;;;;3.93;1.67;;;;;;;;;;5061605;28;20160;-75
2022/01/17 13:37:40;;;;;;;2.47;1.40;;;;;;;;;;5060318;28;20126;-74
2022/01/17 13:40:15;;;;;;;3.33;1.37;;;;;;;;;;5060555;28;20041;-75
2022/01/17 13:42:55;;;;;;;4.57;2.37;;;;;;;;;;5075520;28;20481;-75
2022/01/17 13:45:31;;;;;;;5.93;1.70;;;;;;;;;;5062480;28;20028;-75
2022/01/17 13:47:58;;;;;;;3.20;1.80;;;;;;;;;;5059694;28;20893;-75
2022/01/17 13:50:24;;;;;;;2.93;1.90;;;;;;;;;;5062029;28;20090;-74
2022/01/17 13:52:53;;;;;;;4.13;2.60;;;;;;;;;;5075705;28;20492;-76
2022/01/17 13:55:30;;;;;;;2.77;1.73;;;;;;;;;;5058850;28;20472;-75
2022/01/17 13:57:58;;;;;;;4.93;2.03;;;;;;;;;;5057256;28;20628;-76
2022/01/17 14:00:30;;;;;;;2.37;1.50;;;;;;;;;;5056873;28;20040;-74
2022/01/17 14:03:00;;;;;;;2.87;1.97;;;;;;;;;;5061850;28;20043;-75
2022/01/17 14:05:32;;;;;;;4.37;2.10;;;;;;;;;;5062628;28;20033;-74
2022/01/17 14:08:11;;;;;;;2.63;1.60;;;;;;;;;;5056116;28;20660;-76
2022/01/17 14:10:49;;;;;;;7.63;2.03;;;;;;;;;;5061857;28;20028;-75
2022/01/17 14:13:19;;;;;;;2.43;1.53;;;;;;;;;;5061292;28;20147;-75
2022/01/17 14:15:45;;;;;;;6.27;1.70;;;;;;;;;;5062232;28;20116;-76
2022/01/17 14:18:11;;;;;;;2.70;1.37;;;;;;;;;;5062355;28;20107;-76
2022/01/17 14:20:38;;;;;;;3.80;1.70;;;;;;;;;;5060658;28;20101;-75
2022/01/17 14:23:04;;;;;;;4.37;1.90;;;;;;;;;;5046638;28;20036;-74
2022/01/17 14:25:30;;;;;;;6.90;1.87;;;;;;;;;;5059384;28;20040;-74
2022/01/17 14:28:00;;;;;;;2.17;1.67;;;;;;;;;;5060534;28;20043;-75
2022/01/17 14:30:31;;;;;;;2.90;1.93;;;;;;;;;;5062967;28;20424;-76
2022/01/17 14:33:16;;;;;;;2.78;1.50;;;;;;;;;;5060669;28;20259;-74
2022/01/17 14:36:01;;;;;;;2.80;1.73;;;;;;;;;;5060179;28;20492;-74
2022/01/17 14:38:27;;;;;;;2.33;1.67;;;;;;;;;;5060293;28;20064;-76
2022/01/17 14:40:52;;;;;;;3.80;2.50;;;;;;;;;;5063686;28;20052;-76
2022/01/17 14:43:19;;;;;;;5.70;2.93;;;;;;;;;;5060224;28;20127;-75
2022/01/17 14:45:49;;;;;;;4.83;2.30;;;;;;;;;;5075277;28;20029;-74
2022/01/17 14:48:17;;;;;;;4.17;2.30;;;;;;;;;;5058298;28;20029;-76
2022/01/17 14:50:43;;;;;;;8.60;3.40;;;;;;;;;;5064189;28;20159;-75
2022/01/17 14:53:17;;;;;;;3.00;1.90;;;;;;;;;;5062683;28;20028;-74
2022/01/17 15:01:23;;;;;;;2.80;2.13;;;;;;;;;;5063994;28;20065;-74
2022/01/17 15:03:54;;;;;;;4.53;2.50;;;;;;;;;;5060017;28;20029;-77
2022/01/17 15:06:19;;;;;;;18.00;2.40;;;;;;;;;;5063749;28;20107;-75
2022/01/17 15:08:48;;;;;;;5.03;1.10;;;;;;;;;;5059497;28;20444;-76
2022/01/17 15:11:14;;;;;;;4.57;2.10;;;;;;;;;;5073611;28;20058;-76
2022/01/17 15:13:40;;;;;;;1.53;1.23;;;;;;;;;;5074965;28;20056;-76
2022/01/17 15:16:05;;;;;;;1.70;1.10;;;;;;;;;;5069462;28;20074;-76
2022/01/17 15:18:31;;;;;;;5.13;1.07;;;;;;;;;;5078899;28;20075;-76